createdAt,value
2023-03-01T00:01:48.827Z,35.53
2023-03-01T00:04:17.235Z,36.41
2023-03-01T00:06:48.859Z,35.77
2023-03-01T00:09:18.197Z,35.76
2023-03-01T00:11:47.214Z,35.71
2023-03-01T00:14:18.359Z,35.50
2023-03-01T00:16:47.505Z,35.54
2023-03-01T00:19:18.931Z,35.35
2023-03-01T00:21:47.471Z,35.69
2023-03-01T00:24:16.490Z,36.44
2023-03-01T00:26:45.093Z,37.02
2023-03-01T00:29:13.499Z,36.89
2023-03-01T00:31:41.959Z,36.44
2023-03-01T00:34:10.597Z,36.09
2023-03-01T00:36:39.396Z,36.25
2023-03-01T00:39:12.993Z,35.62
2023-03-01T00:41:42.292Z,36.14
2023-03-01T00:44:11.328Z,36.17
2023-03-01T00:46:40.006Z,36.05
2023-03-01T00:49:08.885Z,36.15
2023-03-01T00:51:37.330Z,35.80
2023-03-01T00:54:05.817Z,36.28
2023-03-01T00:56:34.560Z,35.87
2023-03-01T00:59:03.206Z,36.09
2023-03-01T01:01:32.477Z,36.35
2023-03-01T01:04:07.121Z,36.44
2023-03-01T01:06:44.788Z,36.11
2023-03-01T01:09:18.698Z,36.01
2023-03-01T01:11:49.229Z,36.02
2023-03-01T01:14:18.825Z,35.97
2023-03-01T01:16:47.315Z,36.36
2023-03-01T01:19:16.384Z,35.83
2023-03-01T01:21:45.770Z,35.67
2023-03-01T01:24:14.406Z,36.29
2023-03-01T01:26:43.347Z,36.16
2023-03-01T01:29:12.791Z,36.83
2023-03-01T01:31:42.737Z,36.83
2023-03-01T01:34:19.077Z,37.01
2023-03-01T01:36:54.941Z,36.93
2023-03-01T01:39:23.926Z,36.65
2023-03-01T01:41:52.349Z,36.33
2023-03-01T01:44:24.512Z,36.58
2023-03-01T01:47:02.244Z,36.96
2023-03-01T01:49:43.537Z,36.90
2023-03-01T01:52:22.553Z,36.89
2023-03-01T01:55:06.109Z,36.49
2023-03-01T01:57:50.394Z,36.64
2023-03-01T02:00:24.704Z,36.94
2023-03-01T02:02:58.806Z,37.28
2023-03-01T02:05:37.385Z,36.72
2023-03-01T02:08:06.964Z,36.52
2023-03-01T02:10:36.769Z,36.89
2023-03-01T02:13:05.551Z,37.10
2023-03-01T02:15:35.529Z,36.90
2023-03-01T02:18:05.241Z,37.02
2023-03-01T02:20:51.017Z,36.79
2023-03-01T02:23:19.625Z,36.90
2023-03-01T02:25:57.934Z,36.85
2023-03-01T02:28:46.769Z,36.42
2023-03-01T02:31:39.457Z,36.90
2023-03-01T02:34:11.373Z,37.24
2023-03-01T02:37:13.909Z,37.78
2023-03-01T02:39:49.112Z,37.39
2023-03-01T02:42:25.560Z,38.15
2023-03-01T02:44:55.535Z,37.95
2023-03-01T02:47:24.285Z,38.29
2023-03-01T02:49:52.950Z,38.83
2023-03-01T02:52:42.647Z,38.53
2023-03-01T02:55:17.428Z,38.51
2023-03-01T02:57:51.686Z,37.68
2023-03-01T03:00:26.260Z,38.67
2023-03-01T03:02:57.850Z,37.98
2023-03-01T03:05:29.138Z,37.52
2023-03-01T03:07:59.778Z,37.75
2023-03-01T03:10:30.888Z,37.96
2023-03-01T03:13:02.381Z,38.58
2023-03-01T03:15:30.777Z,39.02
2023-03-01T03:17:59.938Z,37.97
2023-03-01T03:20:29.689Z,37.82
2023-03-01T03:22:59.537Z,38.06
2023-03-01T03:25:30.225Z,38.19
2023-03-01T03:27:59.243Z,38.30
2023-03-01T03:30:30.998Z,38.11
2023-03-01T03:33:00.482Z,38.26
2023-03-01T03:35:31.577Z,39.53
2023-03-01T03:38:04.614Z,38.98
2023-03-01T03:40:46.688Z,38.19
2023-03-01T03:43:24.499Z,38.40
2023-03-01T03:45:53.227Z,38.67
2023-03-01T03:48:22.822Z,38.43
2023-03-01T03:50:56.297Z,38.85
2023-03-01T03:53:27.126Z,38.39
2023-03-01T03:55:55.898Z,37.95
2023-03-01T03:58:26.275Z,39.21
2023-03-01T04:00:57.865Z,38.29
2023-03-01T04:03:28.194Z,38.63
2023-03-01T04:05:59.660Z,38.09
2023-03-01T04:08:28.614Z,38.42
2023-03-01T04:11:22.665Z,38.25
2023-03-01T04:13:52.787Z,37.82
2023-03-01T04:16:21.499Z,38.45
2023-03-01T04:18:50.361Z,38.21
2023-03-01T04:21:21.171Z,38.70
2023-03-01T04:23:53.344Z,39.81
2023-03-01T04:26:21.733Z,39.95
2023-03-01T04:28:51.361Z,38.74
2023-03-01T04:31:22.333Z,39.00
2023-03-01T04:33:53.934Z,39.04
2023-03-01T04:36:26.087Z,38.56
2023-03-01T04:38:54.904Z,38.49
2023-03-01T04:41:25.815Z,38.91
2023-03-01T04:43:54.196Z,39.36
2023-03-01T04:46:23.077Z,38.74
2023-03-01T04:48:51.710Z,39.02
2023-03-01T04:51:20.193Z,38.64
2023-03-01T04:53:48.662Z,39.96
2023-03-01T04:56:19.013Z,38.93
2023-03-01T04:58:47.843Z,39.37
2023-03-01T05:01:19.757Z,39.16
2023-03-01T05:03:51.548Z,39.24
2023-03-01T05:06:21.184Z,38.95
2023-03-01T05:08:50.215Z,38.84
2023-03-01T05:11:18.669Z,38.83
2023-03-01T05:13:47.163Z,40.05
2023-03-01T05:16:15.787Z,39.85
2023-03-01T05:18:44.583Z,39.87
2023-03-01T05:21:17.098Z,40.03
2023-03-01T05:23:47.742Z,41.54
2023-03-01T05:26:33.884Z,41.44
2023-03-01T05:29:02.374Z,40.58
2023-03-01T05:31:31.870Z,39.91
2023-03-01T05:34:00.564Z,40.17
2023-03-01T05:36:29.428Z,40.48
2023-03-01T05:38:58.098Z,39.90
2023-03-01T05:41:26.533Z,39.59
2023-03-01T05:43:55.036Z,40.34
2023-03-01T05:46:25.344Z,40.49
2023-03-01T05:48:53.839Z,40.97
2023-03-01T05:51:23.171Z,40.70
2023-03-01T05:53:51.741Z,39.59
2023-03-01T05:56:20.165Z,39.55
2023-03-01T05:58:51.375Z,41.10
2023-03-01T06:01:19.777Z,40.44
2023-03-01T06:03:48.324Z,39.92
2023-03-01T06:06:16.826Z,39.45
2023-03-01T06:08:45.357Z,39.45
2023-03-01T06:11:13.867Z,39.33
2023-03-01T06:13:44.128Z,39.52
2023-03-01T06:16:13.443Z,39.73
2023-03-01T06:18:42.253Z,40.68
2023-03-01T06:21:10.680Z,40.60
2023-03-01T06:23:39.100Z,41.02
2023-03-01T06:26:09.390Z,40.46
2023-03-01T06:28:37.902Z,40.33
2023-03-01T06:31:09.679Z,40.25
2023-03-01T06:33:38.327Z,39.93
2023-03-01T06:36:07.520Z,40.19
2023-03-01T06:38:35.970Z,39.90
2023-03-01T06:41:04.632Z,40.29
2023-03-01T06:43:33.272Z,40.50
2023-03-01T06:46:05.807Z,40.77
2023-03-01T06:48:34.851Z,40.61
2023-03-01T06:51:03.416Z,40.75
2023-03-01T06:53:31.972Z,40.26
2023-03-01T06:56:03.358Z,41.26
2023-03-01T06:58:31.979Z,41.53
2023-03-01T07:01:00.636Z,42.56
2023-03-01T07:03:29.084Z,41.36
2023-03-01T07:05:57.510Z,41.06
2023-03-01T07:08:25.937Z,41.39
2023-03-01T07:10:58.778Z,40.98
2023-03-01T07:13:27.184Z,41.84
2023-03-01T07:15:55.829Z,40.97
2023-03-01T07:18:24.369Z,40.81
2023-03-01T07:20:52.866Z,41.00
2023-03-01T07:23:21.378Z,40.69
2023-03-01T07:25:54.718Z,40.79
2023-03-01T07:28:26.320Z,40.55
2023-03-01T07:30:55.379Z,40.17
2023-03-01T07:33:23.898Z,39.96
2023-03-01T07:35:58.683Z,40.68
2023-03-01T07:38:27.889Z,40.79
2023-03-01T07:41:01.589Z,41.10
2023-03-01T07:43:31.141Z,42.07
2023-03-01T07:46:01.411Z,41.82
2023-03-01T07:48:31.724Z,41.05
2023-03-01T07:51:01.606Z,41.11
2023-03-01T07:53:32.179Z,41.10
2023-03-01T07:56:13.976Z,40.71
2023-03-01T07:58:43.498Z,40.68
2023-03-01T08:01:16.040Z,40.50
2023-03-01T08:03:44.864Z,40.39
2023-03-01T08:06:15.725Z,40.16
2023-03-01T08:08:44.543Z,40.63
2023-03-01T08:11:15.367Z,40.95
2023-03-01T08:13:44.400Z,41.33
2023-03-01T08:16:15.557Z,40.64
2023-03-01T08:18:44.773Z,40.38
2023-03-01T08:21:16.082Z,40.91
2023-03-01T08:23:45.521Z,40.98
2023-03-01T08:26:20.843Z,40.13
2023-03-01T08:28:50.162Z,40.38
2023-03-01T08:31:21.677Z,39.81
2023-03-01T08:33:56.366Z,40.17
2023-03-01T08:36:27.403Z,40.11
2023-03-01T08:38:56.197Z,40.03
2023-03-01T08:41:24.931Z,40.15
2023-03-01T08:43:59.339Z,40.28
2023-03-01T08:46:33.859Z,40.60
2023-03-01T08:49:12.124Z,40.52
2023-03-01T08:51:41.228Z,39.97
2023-03-01T08:54:17.965Z,39.97
2023-03-01T08:56:46.951Z,39.51
2023-03-01T08:59:16.984Z,39.61
2023-03-01T09:01:45.591Z,39.03
2023-03-01T09:04:15.691Z,39.51
2023-03-01T09:06:44.234Z,39.97
2023-03-01T09:09:17.485Z,39.78
2023-03-01T09:11:47.768Z,39.07
2023-03-01T09:14:16.673Z,38.98
2023-03-01T09:16:46.074Z,38.82
2023-03-01T09:19:15.123Z,38.47
2023-03-01T09:21:53.115Z,38.68
2023-03-01T09:24:23.253Z,38.36
2023-03-01T09:26:55.651Z,38.28
2023-03-01T09:29:24.577Z,38.32
2023-03-01T09:31:56.082Z,38.19
2023-03-01T09:34:24.824Z,37.96
2023-03-01T09:36:53.369Z,37.70
2023-03-01T09:39:21.785Z,37.05
2023-03-01T09:42:05.365Z,36.62
2023-03-01T09:44:44.827Z,36.83
2023-03-01T09:47:22.801Z,37.00
2023-03-01T09:50:04.500Z,36.79
2023-03-01T09:52:54.832Z,36.56
2023-03-01T09:55:56.693Z,36.21
2023-03-01T09:59:02.554Z,36.72
2023-03-01T10:01:46.554Z,35.83
2023-03-01T10:04:29.740Z,35.70
2023-03-01T10:07:10.175Z,36.31
2023-03-01T10:09:41.900Z,36.02
2023-03-01T10:12:14.801Z,36.39
2023-03-01T10:15:17.441Z,36.16
2023-03-01T10:17:53.808Z,36.07
2023-03-01T10:20:22.302Z,36.34
2023-03-01T10:22:53.402Z,36.10
2023-03-01T10:25:25.597Z,35.63
2023-03-01T10:27:55.020Z,35.02
2023-03-01T10:30:30.560Z,34.50
2023-03-01T10:32:59.601Z,34.55
2023-03-01T10:35:30.244Z,33.89
2023-03-01T10:38:09.737Z,34.48
2023-03-01T10:40:55.911Z,34.99
2023-03-01T10:43:26.487Z,34.73
2023-03-01T10:45:54.950Z,34.41
2023-03-01T10:48:27.214Z,34.10
2023-03-01T10:50:58.335Z,34.29
2023-03-01T10:53:33.066Z,34.42
2023-03-01T10:56:08.073Z,33.55
2023-03-01T10:58:38.647Z,33.41
2023-03-01T11:01:27.519Z,34.17
2023-03-01T11:04:08.307Z,34.33
2023-03-01T11:06:38.821Z,34.46
2023-03-01T11:09:18.936Z,33.77
2023-03-01T11:11:52.594Z,33.52
2023-03-01T11:14:28.462Z,33.33
2023-03-01T11:17:16.378Z,33.37
2023-03-01T11:20:02.985Z,32.94
2023-03-01T11:22:33.841Z,32.94
2023-03-01T11:25:10.377Z,32.65
2023-03-01T11:27:44.043Z,33.20
2023-03-01T11:30:30.202Z,32.79
2023-03-01T11:33:22.615Z,32.83
2023-03-01T11:36:17.134Z,32.74
2023-03-01T11:38:45.676Z,32.22
2023-03-01T11:41:18.896Z,32.55
2023-03-01T11:43:59.732Z,32.73
2023-03-01T11:46:34.273Z,32.65
2023-03-01T11:49:44.764Z,32.71
2023-03-01T11:52:55.868Z,32.14
2023-03-01T11:56:05.865Z,32.63
2023-03-01T11:59:00.669Z,32.39
2023-03-01T12:01:44.735Z,32.83
2023-03-01T12:04:24.762Z,33.05
2023-03-01T12:06:57.652Z,32.77
2023-03-01T12:10:07.978Z,32.72
2023-03-01T12:12:45.556Z,32.12
2023-03-01T12:15:20.228Z,32.13
2023-03-01T12:18:16.606Z,32.69
2023-03-01T12:20:56.220Z,32.16
2023-03-01T12:23:51.072Z,32.21
2023-03-01T12:26:28.358Z,31.87
2023-03-01T12:29:15.009Z,32.16
2023-03-01T12:32:23.361Z,32.09
2023-03-01T12:35:13.563Z,32.05
2023-03-01T12:37:54.081Z,31.88
2023-03-01T12:40:31.489Z,31.83
2023-03-01T12:43:31.709Z,31.58
2023-03-01T12:46:32.791Z,31.73
2023-03-01T12:49:11.813Z,31.65
2023-03-01T12:51:41.795Z,31.70
2023-03-01T12:54:20.562Z,31.42
2023-03-01T12:56:53.432Z,31.79
2023-03-01T12:59:30.975Z,31.46
2023-03-01T13:02:11.355Z,31.91
2023-03-01T13:05:04.881Z,31.23
2023-03-01T13:08:01.387Z,31.62
2023-03-01T13:10:50.588Z,31.58
2023-03-01T13:13:25.169Z,31.04
2023-03-01T13:15:54.549Z,30.91
2023-03-01T13:18:28.782Z,31.15
2023-03-01T13:21:00.305Z,31.32
2023-03-01T13:23:32.873Z,31.10
2023-03-01T13:26:02.710Z,30.96
2023-03-01T13:28:37.036Z,30.86
2023-03-01T13:31:07.674Z,31.23
2023-03-01T13:33:52.030Z,31.12
2023-03-01T13:36:43.605Z,30.90
2023-03-01T13:39:24.338Z,30.85
2023-03-01T13:41:55.430Z,30.93
2023-03-01T13:44:24.596Z,30.47
2023-03-01T13:46:57.117Z,30.54
2023-03-01T13:49:45.938Z,31.05
2023-03-01T13:52:29.266Z,30.50
2023-03-01T13:54:59.005Z,30.37
2023-03-01T13:57:34.932Z,30.71
2023-03-01T14:00:05.773Z,30.83
2023-03-01T14:02:35.258Z,30.76
2023-03-01T14:05:04.023Z,31.11
2023-03-01T14:07:32.377Z,31.56
2023-03-01T14:10:05.975Z,31.17
2023-03-01T14:12:52.268Z,31.07
2023-03-01T14:15:27.630Z,30.87
2023-03-01T14:18:02.237Z,30.48
2023-03-01T14:20:38.439Z,30.73
2023-03-01T14:23:14.541Z,30.95
2023-03-01T14:25:57.534Z,31.14
2023-03-01T14:28:29.247Z,31.00
2023-03-01T14:30:59.823Z,30.89
2023-03-01T14:33:34.425Z,30.79
2023-03-01T14:36:14.064Z,30.93
2023-03-01T14:38:47.036Z,30.51
2023-03-01T14:41:19.562Z,30.13
2023-03-01T14:43:54.105Z,30.22
2023-03-01T14:46:41.453Z,30.28
2023-03-01T14:49:18.263Z,30.48
2023-03-01T14:51:54.239Z,30.09
2023-03-01T14:54:32.777Z,29.83
2023-03-01T14:57:02.778Z,30.17
2023-03-01T14:59:34.471Z,30.17
2023-03-01T15:02:03.609Z,30.12
2023-03-01T15:04:33.114Z,30.00
2023-03-01T15:07:05.917Z,29.85
2023-03-01T15:09:37.458Z,30.17
2023-03-01T15:12:28.120Z,30.23
2023-03-01T15:15:04.373Z,30.17
2023-03-01T15:17:36.807Z,30.04
2023-03-01T15:20:17.646Z,29.79
2023-03-01T15:22:49.646Z,29.71
2023-03-01T15:25:20.465Z,30.06
2023-03-01T15:27:51.471Z,30.24
2023-03-01T15:30:22.235Z,29.88
2023-03-01T15:33:19.946Z,30.00
2023-03-01T15:35:54.661Z,30.25
2023-03-01T15:38:32.966Z,30.20
2023-03-01T15:41:04.559Z,30.31
2023-03-01T15:43:46.789Z,30.24
2023-03-01T15:46:28.419Z,30.43
2023-03-01T15:49:03.338Z,30.03
2023-03-01T15:51:37.023Z,30.20
2023-03-01T15:54:14.477Z,30.17
2023-03-01T15:56:42.938Z,29.64
2023-03-01T15:59:14.899Z,29.88
2023-03-01T16:01:43.478Z,30.50
2023-03-01T16:04:21.682Z,30.31
2023-03-01T16:06:56.062Z,30.08
2023-03-01T16:09:26.387Z,30.09
2023-03-01T16:11:55.206Z,30.29
2023-03-01T16:14:24.016Z,29.99
2023-03-01T16:16:52.449Z,29.88
2023-03-01T16:19:21.077Z,30.21
2023-03-01T16:21:50.869Z,29.82
2023-03-01T16:24:19.323Z,29.81
2023-03-01T16:26:47.763Z,30.32
2023-03-01T16:29:17.194Z,30.97
2023-03-01T16:31:45.889Z,30.84
2023-03-01T16:34:14.582Z,30.74
2023-03-01T16:36:43.848Z,31.24
2023-03-01T16:39:12.330Z,31.19
2023-03-01T16:41:40.838Z,30.97
2023-03-01T16:44:09.358Z,30.82
2023-03-01T16:46:37.900Z,31.21
2023-03-01T16:49:06.281Z,30.69
2023-03-01T16:51:36.510Z,30.77
2023-03-01T16:54:06.367Z,30.93
2023-03-01T16:56:38.433Z,30.98
2023-03-01T16:59:07.491Z,30.57
2023-03-01T17:01:40.442Z,30.35
2023-03-01T17:04:12.632Z,30.24
2023-03-01T17:06:41.196Z,30.62
2023-03-01T17:09:10.356Z,31.17
2023-03-01T17:11:38.982Z,31.14
2023-03-01T17:14:07.905Z,30.74
2023-03-01T17:16:36.815Z,30.84
2023-03-01T17:19:05.345Z,30.65
2023-03-01T17:21:34.127Z,30.66
2023-03-01T17:24:02.660Z,30.62
2023-03-01T17:26:31.122Z,31.05
2023-03-01T17:28:59.725Z,30.69
2023-03-01T17:31:28.175Z,31.11
2023-03-01T17:33:58.863Z,30.94
2023-03-01T17:36:28.278Z,30.95
2023-03-01T17:38:56.741Z,30.75
2023-03-01T17:41:25.165Z,31.04
2023-03-01T17:43:53.678Z,30.95
2023-03-01T17:46:22.209Z,31.34
2023-03-01T17:48:50.583Z,30.93
2023-03-01T17:51:19.213Z,31.66
2023-03-01T17:53:47.631Z,31.37
2023-03-01T17:56:16.255Z,31.94
2023-03-01T17:58:46.740Z,32.04
2023-03-01T18:01:18.588Z,31.61
2023-03-01T18:03:47.801Z,31.54
2023-03-01T18:06:26.393Z,31.60
2023-03-01T18:08:55.198Z,31.38
2023-03-01T18:11:25.654Z,31.67
2023-03-01T18:13:55.274Z,31.54
2023-03-01T18:16:24.027Z,31.69
2023-03-01T18:18:54.126Z,31.59
2023-03-01T18:21:26.483Z,31.74
2023-03-01T18:23:55.068Z,31.66
2023-03-01T18:26:25.122Z,31.79
2023-03-01T18:28:53.898Z,31.65
2023-03-01T18:31:22.712Z,31.78
2023-03-01T18:33:54.738Z,32.14
2023-03-01T18:36:26.140Z,32.46
2023-03-01T18:38:56.405Z,32.18
2023-03-01T18:41:27.249Z,32.16
2023-03-01T18:43:57.025Z,32.04
2023-03-01T18:46:26.064Z,32.24
2023-03-01T18:48:55.123Z,32.25
2023-03-01T18:51:26.841Z,32.78
2023-03-01T18:53:58.954Z,32.53
2023-03-01T18:56:32.055Z,32.40
2023-03-01T18:59:02.354Z,32.75
2023-03-01T19:01:36.170Z,32.66
2023-03-01T19:04:06.001Z,32.52
2023-03-01T19:06:35.370Z,32.24
2023-03-01T19:09:05.494Z,32.03
2023-03-01T19:11:35.592Z,32.27
2023-03-01T19:14:04.587Z,32.49
2023-03-01T19:16:34.475Z,32.42
2023-03-01T19:19:05.310Z,32.63
2023-03-01T19:21:34.226Z,32.49
2023-03-01T19:24:03.117Z,32.43
2023-03-01T19:26:32.830Z,32.44
2023-03-01T19:29:03.467Z,32.53
2023-03-01T19:31:32.212Z,32.62
2023-03-01T19:34:10.980Z,32.64
2023-03-01T19:36:42.744Z,32.83
2023-03-01T19:39:13.503Z,32.59
2023-03-01T19:41:43.176Z,32.32
2023-03-01T19:44:12.289Z,32.19
2023-03-01T19:46:41.770Z,32.32
2023-03-01T19:49:10.352Z,32.15
2023-03-01T19:51:39.370Z,32.50
2023-03-01T19:54:09.806Z,32.64
2023-03-01T19:56:38.774Z,32.42
2023-03-01T19:59:07.717Z,32.70
2023-03-01T20:01:37.645Z,32.58
2023-03-01T20:04:06.519Z,32.74
2023-03-01T20:06:35.687Z,33.26
2023-03-01T20:09:19.050Z,33.38
2023-03-01T20:11:49.985Z,33.10
2023-03-01T20:14:21.087Z,33.38
2023-03-01T20:16:52.814Z,33.53
2023-03-01T20:19:21.625Z,33.44
2023-03-01T20:21:50.356Z,33.48
2023-03-01T20:24:18.807Z,33.97
2023-03-01T20:26:47.418Z,33.98
2023-03-01T20:29:16.026Z,34.04
2023-03-01T20:31:44.605Z,33.89
2023-03-01T20:34:13.298Z,33.87
2023-03-01T20:36:43.862Z,33.70
2023-03-01T20:39:12.348Z,33.84
2023-03-01T20:41:40.946Z,33.89
2023-03-01T20:44:09.865Z,34.35
2023-03-01T20:46:38.893Z,34.06
2023-03-01T20:49:07.406Z,34.63
2023-03-01T20:51:35.975Z,34.38
2023-03-01T20:54:05.151Z,34.37
2023-03-01T20:56:34.329Z,34.38
2023-03-01T20:59:10.488Z,34.93
2023-03-01T21:01:39.792Z,35.62
2023-03-01T21:04:09.213Z,35.29
2023-03-01T21:06:38.831Z,35.17
2023-03-01T21:09:07.245Z,35.21
2023-03-01T21:11:36.069Z,35.55
2023-03-01T21:14:07.488Z,35.40
2023-03-01T21:16:36.487Z,35.55
2023-03-01T21:19:05.140Z,35.45
2023-03-01T21:21:33.726Z,36.03
2023-03-01T21:24:02.553Z,36.67
2023-03-01T21:26:31.140Z,35.73
2023-03-01T21:29:01.519Z,35.63
2023-03-01T21:31:35.290Z,35.84
2023-03-01T21:34:06.192Z,35.57
2023-03-01T21:36:35.942Z,36.25
2023-03-01T21:39:06.177Z,36.14
2023-03-01T21:41:37.050Z,35.99
2023-03-01T21:44:07.272Z,36.32
2023-03-01T21:46:38.730Z,36.20
2023-03-01T21:49:09.785Z,35.74
2023-03-01T21:51:38.388Z,35.95
2023-03-01T21:54:07.351Z,35.88
2023-03-01T21:56:39.297Z,36.28
2023-03-01T21:59:12.873Z,36.67
2023-03-01T22:01:41.567Z,36.64
2023-03-01T22:04:10.864Z,36.08
2023-03-01T22:06:42.818Z,36.34
2023-03-01T22:09:17.488Z,36.37
2023-03-01T22:12:02.437Z,36.46
2023-03-01T22:14:32.288Z,37.05
2023-03-01T22:17:00.871Z,36.17
2023-03-01T22:19:30.257Z,36.39
2023-03-01T22:21:58.678Z,36.44
2023-03-01T22:24:27.250Z,36.27
2023-03-01T22:26:55.860Z,37.21
2023-03-01T22:29:29.099Z,37.16
2023-03-01T22:31:58.285Z,37.40
2023-03-01T22:34:27.386Z,37.47
2023-03-01T22:36:56.556Z,36.67
2023-03-01T22:39:25.030Z,36.55
2023-03-01T22:41:54.031Z,36.08
2023-03-01T22:44:23.539Z,36.63
2023-03-01T22:46:52.835Z,36.78
2023-03-01T22:49:21.552Z,36.16
2023-03-01T22:51:51.457Z,36.54
2023-03-01T22:54:20.532Z,36.67
2023-03-01T22:56:49.586Z,36.87
2023-03-01T22:59:22.503Z,36.76
2023-03-01T23:01:52.374Z,36.66
2023-03-01T23:04:22.376Z,36.47
2023-03-01T23:06:53.587Z,36.68
2023-03-01T23:09:22.088Z,36.90
2023-03-01T23:11:51.334Z,36.80
2023-03-01T23:14:21.184Z,36.75
2023-03-01T23:16:49.982Z,36.93
2023-03-01T23:19:18.965Z,37.35
2023-03-01T23:21:50.245Z,37.59
2023-03-01T23:24:21.385Z,37.43
2023-03-01T23:26:55.884Z,37.51
2023-03-01T23:29:24.297Z,37.13
2023-03-01T23:31:57.375Z,37.19
2023-03-01T23:34:26.748Z,37.11
2023-03-01T23:36:55.744Z,37.44
2023-03-01T23:39:24.222Z,37.51
2023-03-01T23:41:52.690Z,37.66
2023-03-01T23:44:21.448Z,37.60
2023-03-01T23:46:50.661Z,37.49
2023-03-01T23:49:22.312Z,37.37
2023-03-01T23:51:51.395Z,37.56
2023-03-01T23:54:22.683Z,36.97
2023-03-01T23:56:51.241Z,37.69
2023-03-01T23:59:22.348Z,37.53
